createdAt,value
2022-10-01T00:02:03.103Z,23.03
2022-10-01T00:04:30.112Z,23.06
2022-10-01T00:06:59.558Z,23.10
2022-10-01T00:09:27.306Z,23.09
2022-10-01T00:11:54.366Z,23.12
2022-10-01T00:14:21.340Z,23.07
2022-10-01T00:16:48.554Z,23.07
2022-10-01T00:19:15.946Z,23.02
2022-10-01T00:21:42.993Z,23.05
2022-10-01T00:24:13.182Z,23.03
2022-10-01T00:26:40.392Z,22.98
2022-10-01T00:29:11.740Z,22.90
2022-10-01T00:31:39.231Z,22.86
2022-10-01T00:34:06.782Z,22.90
2022-10-01T00:36:34.443Z,22.99
2022-10-01T00:39:02.384Z,23.05
2022-10-01T00:41:31.823Z,23.07
2022-10-01T00:44:02.402Z,23.10
2022-10-01T00:46:39.148Z,23.13
2022-10-01T00:49:17.833Z,23.12
2022-10-01T00:51:52.946Z,23.13
2022-10-01T00:54:27.498Z,23.14
2022-10-01T00:56:58.099Z,23.13
2022-10-01T00:59:25.976Z,23.09
2022-10-01T01:01:53.144Z,23.09
2022-10-01T01:04:20.172Z,23.05
2022-10-01T01:06:54.105Z,23.00
2022-10-01T01:09:23.069Z,23.01
2022-10-01T01:12:05.765Z,23.05
2022-10-01T01:14:54.719Z,23.03
2022-10-01T01:17:33.457Z,23.04
2022-10-01T01:20:26.377Z,23.03
2022-10-01T01:23:19.631Z,23.04
2022-10-01T01:25:59.503Z,23.04
2022-10-01T01:28:32.248Z,23.06
2022-10-01T01:31:05.056Z,23.08
2022-10-01T01:33:35.537Z,23.06
2022-10-01T01:36:08.013Z,23.08
2022-10-01T01:38:40.687Z,23.06
2022-10-01T01:41:09.817Z,23.04
2022-10-01T01:43:44.341Z,23.01
2022-10-01T01:46:17.721Z,22.98
2022-10-01T01:48:49.405Z,22.95
2022-10-01T01:51:37.030Z,22.92
2022-10-01T01:54:04.207Z,22.91
2022-10-01T01:56:32.069Z,22.91
2022-10-01T01:59:00.847Z,22.86
2022-10-01T02:01:40.383Z,22.84
2022-10-01T02:04:20.086Z,22.85
2022-10-01T02:07:01.487Z,22.88
2022-10-01T02:09:37.130Z,22.90
2022-10-01T02:12:41.713Z,22.86
2022-10-01T02:15:08.552Z,22.86
2022-10-01T02:17:42.883Z,22.83
2022-10-01T02:20:25.944Z,22.85
2022-10-01T02:23:11.718Z,22.86
2022-10-01T02:25:45.260Z,22.83
2022-10-01T02:28:16.850Z,22.85
2022-10-01T02:30:47.268Z,22.90
2022-10-01T02:33:17.449Z,22.90
2022-10-01T02:35:47.323Z,22.90
2022-10-01T02:38:17.035Z,22.89
2022-10-01T02:40:46.291Z,22.84
2022-10-01T02:43:18.142Z,22.83
2022-10-01T02:45:51.947Z,22.90
2022-10-01T02:48:19.540Z,22.88
2022-10-01T02:50:55.529Z,22.84
2022-10-01T02:53:34.919Z,22.80
2022-10-01T02:56:04.831Z,22.79
2022-10-01T02:58:31.958Z,22.79
2022-10-01T03:00:59.060Z,22.70
2022-10-01T03:03:26.493Z,22.67
2022-10-01T03:05:53.617Z,22.57
2022-10-01T03:08:20.633Z,22.52
2022-10-01T03:10:50.788Z,22.46
2022-10-01T03:13:19.957Z,22.51
2022-10-01T03:15:47.482Z,22.52
2022-10-01T03:18:14.582Z,22.52
2022-10-01T03:20:41.707Z,22.54
2022-10-01T03:23:08.697Z,22.49
2022-10-01T03:25:36.684Z,22.40
2022-10-01T03:28:03.780Z,22.39
2022-10-01T03:30:30.966Z,22.39
2022-10-01T03:32:57.992Z,22.41
2022-10-01T03:35:25.217Z,22.46
2022-10-01T03:37:53.365Z,22.52
2022-10-01T03:40:20.374Z,22.57
2022-10-01T03:42:47.327Z,22.60
2022-10-01T03:45:14.440Z,22.57
2022-10-01T03:47:41.470Z,22.59
2022-10-01T03:50:08.929Z,22.59
2022-10-01T03:52:35.863Z,22.58
2022-10-01T03:55:02.874Z,22.59
2022-10-01T03:57:29.907Z,22.62
2022-10-01T03:59:56.869Z,22.62
2022-10-01T04:02:24.387Z,22.65
2022-10-01T04:04:51.590Z,22.67
2022-10-01T04:07:18.506Z,22.69
2022-10-01T04:09:45.545Z,22.67
2022-10-01T04:12:12.659Z,22.62
2022-10-01T04:14:39.638Z,22.52
2022-10-01T04:17:06.631Z,22.44
2022-10-01T04:19:33.709Z,22.37
2022-10-01T04:22:00.688Z,22.31
2022-10-01T04:24:27.685Z,22.32
2022-10-01T04:26:54.765Z,22.29
2022-10-01T04:29:21.787Z,22.23
2022-10-01T04:31:48.778Z,22.19
2022-10-01T04:34:15.895Z,22.15
2022-10-01T04:36:42.839Z,22.11
2022-10-01T04:39:09.780Z,22.10
2022-10-01T04:41:37.037Z,22.09
2022-10-01T04:44:04.473Z,22.08
2022-10-01T04:46:31.895Z,22.05
2022-10-01T04:48:58.957Z,22.05
2022-10-01T04:51:26.065Z,21.99
2022-10-01T04:53:53.500Z,21.99
2022-10-01T04:56:20.489Z,21.94
2022-10-01T04:58:48.822Z,21.91
2022-10-01T05:01:15.954Z,21.90
2022-10-01T05:03:43.041Z,21.88
2022-10-01T05:06:10.078Z,21.87
2022-10-01T05:08:39.215Z,21.86
2022-10-01T05:11:06.377Z,21.89
2022-10-01T05:13:33.391Z,21.89
2022-10-01T05:16:02.555Z,21.91
2022-10-01T05:18:30.471Z,21.93
2022-10-01T05:20:57.508Z,21.94
2022-10-01T05:23:24.629Z,21.98
2022-10-01T05:25:51.652Z,21.97
2022-10-01T05:28:22.336Z,21.95
2022-10-01T05:30:49.818Z,21.92
2022-10-01T05:33:17.095Z,21.93
2022-10-01T05:35:44.728Z,21.95
2022-10-01T05:38:11.769Z,22.00
2022-10-01T05:40:38.822Z,22.05
2022-10-01T05:43:05.843Z,22.04
2022-10-01T05:45:33.084Z,22.01
2022-10-01T05:48:05.906Z,22.02
2022-10-01T05:50:36.094Z,21.99
2022-10-01T05:53:03.366Z,21.98
2022-10-01T05:55:34.876Z,21.97
2022-10-01T05:58:07.579Z,21.98
2022-10-01T06:00:36.097Z,21.99
2022-10-01T06:03:04.831Z,22.04
2022-10-01T06:05:33.696Z,22.02
2022-10-01T06:08:01.241Z,22.03
2022-10-01T06:10:30.547Z,22.02
2022-10-01T06:13:02.147Z,22.01
2022-10-01T06:15:30.060Z,21.96
2022-10-01T06:17:57.137Z,21.99
2022-10-01T06:20:24.368Z,22.00
2022-10-01T06:22:58.645Z,22.09
2022-10-01T06:25:29.961Z,22.15
2022-10-01T06:27:59.168Z,22.25
2022-10-01T06:30:32.031Z,22.30
2022-10-01T06:33:09.580Z,22.34
2022-10-01T06:35:47.489Z,22.37
2022-10-01T06:38:15.325Z,22.37
2022-10-01T06:40:42.455Z,22.39
2022-10-01T06:43:10.023Z,22.40
2022-10-01T06:45:42.832Z,22.35
2022-10-01T06:48:14.863Z,22.34
2022-10-01T06:50:43.604Z,22.35
2022-10-01T06:53:11.960Z,22.34
2022-10-01T06:55:39.173Z,22.28
2022-10-01T06:58:10.387Z,22.26
2022-10-01T07:00:39.295Z,22.29
2022-10-01T07:03:11.205Z,22.34
2022-10-01T07:05:39.072Z,22.30
2022-10-01T07:08:07.178Z,22.25
2022-10-01T07:10:35.922Z,22.20
2022-10-01T07:13:15.465Z,22.17
2022-10-01T07:15:43.280Z,22.19
2022-10-01T07:18:10.756Z,22.25
2022-10-01T07:20:40.201Z,22.31
2022-10-01T07:23:10.657Z,22.34
2022-10-01T07:25:39.125Z,22.37
2022-10-01T07:28:07.943Z,22.37
2022-10-01T07:30:35.232Z,22.32
2022-10-01T07:33:02.429Z,22.31
2022-10-01T07:35:29.915Z,22.38
2022-10-01T07:37:56.872Z,22.43
2022-10-01T07:40:23.934Z,22.43
2022-10-01T07:42:55.938Z,22.48
2022-10-01T07:45:24.668Z,22.53
2022-10-01T07:48:09.550Z,22.64
2022-10-01T07:50:36.730Z,22.69
2022-10-01T07:53:04.931Z,22.73
2022-10-01T07:55:33.073Z,22.81
2022-10-01T07:58:02.366Z,22.81
2022-10-01T08:00:32.029Z,22.79
2022-10-01T08:02:59.165Z,22.81
2022-10-01T08:05:32.470Z,22.81
2022-10-01T08:08:02.247Z,22.84
2022-10-01T08:10:30.675Z,22.86
2022-10-01T08:13:02.668Z,22.89
2022-10-01T08:15:29.879Z,22.95
2022-10-01T08:17:56.993Z,22.97
2022-10-01T08:20:24.399Z,23.00
2022-10-01T08:22:51.673Z,22.98
2022-10-01T08:25:19.050Z,23.02
2022-10-01T08:27:46.109Z,23.03
2022-10-01T08:30:13.182Z,23.03
2022-10-01T08:32:40.195Z,23.02
2022-10-01T08:35:07.675Z,23.08
2022-10-01T08:37:35.116Z,23.13
2022-10-01T08:40:02.577Z,23.16
2022-10-01T08:42:33.617Z,23.20
2022-10-01T08:45:05.331Z,23.22
2022-10-01T08:47:38.904Z,23.21
2022-10-01T08:50:36.155Z,23.15
2022-10-01T08:53:06.998Z,23.10
2022-10-01T08:55:37.718Z,23.06
2022-10-01T08:58:07.437Z,23.07
2022-10-01T09:00:39.199Z,23.14
2022-10-01T09:03:10.913Z,23.29
2022-10-01T09:05:46.684Z,23.41
2022-10-01T09:08:25.831Z,23.48
2022-10-01T09:11:07.526Z,23.55
2022-10-01T09:13:57.744Z,23.63
2022-10-01T09:16:46.678Z,23.66
2022-10-01T09:19:41.002Z,23.65
2022-10-01T09:22:29.918Z,23.56
2022-10-01T09:25:09.751Z,23.51
2022-10-01T09:27:38.751Z,23.43
2022-10-01T09:30:14.405Z,23.41
2022-10-01T09:32:44.204Z,23.47
2022-10-01T09:35:42.085Z,23.59
2022-10-01T09:38:16.011Z,23.80
2022-10-01T09:40:56.547Z,23.94
2022-10-01T09:43:26.821Z,24.03
2022-10-01T09:45:54.053Z,24.03
2022-10-01T09:48:35.384Z,24.01
2022-10-01T09:51:11.084Z,24.00
2022-10-01T09:53:46.741Z,24.01
2022-10-01T09:56:27.610Z,24.04
2022-10-01T09:59:00.697Z,23.97
2022-10-01T10:01:43.242Z,23.90
2022-10-01T10:04:11.461Z,23.86
2022-10-01T10:06:39.509Z,23.84
2022-10-01T10:09:16.831Z,23.88
2022-10-01T10:11:45.578Z,23.83
2022-10-01T10:14:20.764Z,23.86
2022-10-01T10:16:49.090Z,23.93
2022-10-01T10:19:23.263Z,24.01
2022-10-01T10:21:53.074Z,24.07
2022-10-01T10:24:27.626Z,24.07
2022-10-01T10:26:57.595Z,24.04
2022-10-01T10:29:27.718Z,24.03
2022-10-01T10:31:55.699Z,24.04
2022-10-01T10:34:32.256Z,24.05
2022-10-01T10:37:01.430Z,24.09
2022-10-01T10:39:33.033Z,24.13
2022-10-01T10:42:01.734Z,24.14
2022-10-01T10:44:36.432Z,24.14
2022-10-01T10:47:11.481Z,24.17
2022-10-01T10:50:26.327Z,24.22
2022-10-01T10:52:53.199Z,24.27
2022-10-01T10:55:27.115Z,24.16
2022-10-01T10:57:57.520Z,24.06
2022-10-01T11:00:26.371Z,24.03
2022-10-01T11:02:59.837Z,24.01
2022-10-01T11:05:30.249Z,23.93
2022-10-01T11:08:00.289Z,23.90
2022-10-01T11:10:43.642Z,23.96
2022-10-01T11:13:39.644Z,24.06
2022-10-01T11:16:30.738Z,23.98
2022-10-01T11:19:02.112Z,23.84
2022-10-01T11:21:45.402Z,23.71
2022-10-01T11:24:15.403Z,23.67
2022-10-01T11:26:59.315Z,23.79
2022-10-01T11:29:38.650Z,23.91
2022-10-01T11:32:33.757Z,23.95
2022-10-01T11:35:35.954Z,24.03
2022-10-01T11:38:39.345Z,24.03
2022-10-01T11:41:22.395Z,24.07
2022-10-01T11:44:06.492Z,24.14
2022-10-01T11:46:38.998Z,24.19
2022-10-01T11:49:09.039Z,24.23
2022-10-01T11:51:42.730Z,24.22
2022-10-01T11:54:12.276Z,24.22
2022-10-01T11:57:05.047Z,24.26
2022-10-01T11:59:41.155Z,24.33
2022-10-01T12:02:24.051Z,24.38
2022-10-01T12:05:01.700Z,24.31
2022-10-01T12:07:53.918Z,24.38
2022-10-01T12:10:45.086Z,24.43
2022-10-01T12:13:24.399Z,24.51
2022-10-01T12:16:09.010Z,24.53
2022-10-01T12:18:57.747Z,24.57
2022-10-01T12:21:30.222Z,24.60
2022-10-01T12:24:27.848Z,24.61
2022-10-01T12:26:57.691Z,24.64
2022-10-01T12:29:36.432Z,24.69
2022-10-01T12:32:24.737Z,24.78
2022-10-01T12:34:54.759Z,24.77
2022-10-01T12:37:41.098Z,24.80
2022-10-01T12:40:32.812Z,24.84
2022-10-01T12:43:29.128Z,24.87
2022-10-01T12:46:11.071Z,24.87
2022-10-01T12:48:41.095Z,24.95
2022-10-01T12:51:13.940Z,25.02
2022-10-01T12:54:00.711Z,25.12
2022-10-01T12:56:37.149Z,25.19
2022-10-01T12:59:10.374Z,25.32
2022-10-01T13:02:18.196Z,25.40
2022-10-01T13:05:03.789Z,25.52
2022-10-01T13:07:39.611Z,25.48
2022-10-01T13:10:16.089Z,25.47
2022-10-01T13:13:12.326Z,25.53
2022-10-01T13:15:42.522Z,25.64
2022-10-01T13:18:38.547Z,25.70
2022-10-01T13:21:32.599Z,25.57
2022-10-01T13:24:06.338Z,25.52
2022-10-01T13:26:40.710Z,25.41
2022-10-01T13:29:45.918Z,25.29
2022-10-01T13:32:26.693Z,25.28
2022-10-01T13:34:54.537Z,25.26
2022-10-01T13:37:30.906Z,25.37
2022-10-01T13:39:59.836Z,25.41
2022-10-01T13:42:41.372Z,25.41
2022-10-01T13:45:22.705Z,25.43
2022-10-01T13:47:50.033Z,25.39
2022-10-01T13:50:24.608Z,25.30
2022-10-01T13:52:53.037Z,25.20
2022-10-01T13:55:32.125Z,25.17
2022-10-01T13:58:27.184Z,25.13
2022-10-01T14:00:56.681Z,25.07
2022-10-01T14:03:36.799Z,25.10
2022-10-01T14:06:08.264Z,25.07
2022-10-01T14:08:44.300Z,25.33
2022-10-01T14:11:44.048Z,25.36
2022-10-01T14:14:42.934Z,25.51
2022-10-01T14:17:10.916Z,25.40
2022-10-01T14:19:47.258Z,25.34
2022-10-01T14:22:41.928Z,25.37
2022-10-01T14:25:31.345Z,25.49
2022-10-01T14:28:29.087Z,25.41
2022-10-01T14:31:37.507Z,25.37
2022-10-01T14:34:39.746Z,25.28
2022-10-01T14:37:08.698Z,25.52
2022-10-01T14:39:35.790Z,25.69
2022-10-01T14:42:16.511Z,25.62
2022-10-01T14:44:47.651Z,25.57
2022-10-01T14:47:21.053Z,25.50
2022-10-01T14:49:48.791Z,25.80
2022-10-01T14:52:24.534Z,25.74
2022-10-01T14:54:59.854Z,25.65
2022-10-01T14:57:43.134Z,25.60
2022-10-01T15:00:26.537Z,25.79
2022-10-01T15:03:16.052Z,25.79
2022-10-01T15:05:44.767Z,26.23
2022-10-01T15:08:23.581Z,26.33
2022-10-01T15:11:01.346Z,26.58
2022-10-01T15:13:40.644Z,26.50
2022-10-01T15:16:24.668Z,26.38
2022-10-01T15:19:23.269Z,26.39
2022-10-01T15:21:56.037Z,26.06
2022-10-01T15:24:28.361Z,26.00
2022-10-01T15:26:57.688Z,26.20
2022-10-01T15:29:24.750Z,26.34
2022-10-01T15:31:56.239Z,26.10
2022-10-01T15:34:25.994Z,25.91
2022-10-01T15:36:54.048Z,25.78
2022-10-01T15:39:31.700Z,25.79
2022-10-01T15:42:02.610Z,26.15
2022-10-01T15:44:46.590Z,26.25
2022-10-01T15:47:32.227Z,26.20
2022-10-01T15:50:07.064Z,26.16
2022-10-01T15:52:52.078Z,25.88
2022-10-01T15:55:42.094Z,25.60
2022-10-01T15:58:17.660Z,25.41
2022-10-01T16:00:47.939Z,25.17
2022-10-01T16:03:25.260Z,25.04
2022-10-01T16:05:55.256Z,25.06
2022-10-01T16:08:34.243Z,24.99
2022-10-01T16:11:13.432Z,24.98
2022-10-01T16:13:43.606Z,25.07
2022-10-01T16:16:13.731Z,25.12
2022-10-01T16:18:41.982Z,25.21
2022-10-01T16:21:11.163Z,25.31
2022-10-01T16:23:40.926Z,25.17
2022-10-01T16:26:27.968Z,25.10
2022-10-01T16:28:56.940Z,24.97
2022-10-01T16:31:25.820Z,24.85
2022-10-01T16:33:53.554Z,24.79
2022-10-01T16:36:24.296Z,24.95
2022-10-01T16:38:51.727Z,24.88
2022-10-01T16:41:23.045Z,24.87
2022-10-01T16:43:51.608Z,24.76
2022-10-01T16:46:18.627Z,24.57
2022-10-01T16:48:51.899Z,24.50
2022-10-01T16:51:19.750Z,24.43
2022-10-01T16:53:47.301Z,24.32
2022-10-01T16:56:15.005Z,24.50
2022-10-01T16:58:43.526Z,24.46
2022-10-01T17:01:14.668Z,24.54
2022-10-01T17:03:42.416Z,24.61
2022-10-01T17:06:09.814Z,24.50
2022-10-01T17:08:36.786Z,24.43
2022-10-01T17:11:04.956Z,24.43
2022-10-01T17:13:34.236Z,24.40
2022-10-01T17:16:01.763Z,24.27
2022-10-01T17:18:29.253Z,24.24
2022-10-01T17:20:56.536Z,24.22
2022-10-01T17:23:23.795Z,24.24
2022-10-01T17:25:51.358Z,24.26
2022-10-01T17:28:20.489Z,24.37
2022-10-01T17:30:49.445Z,24.40
2022-10-01T17:33:22.795Z,24.32
2022-10-01T17:35:55.851Z,24.29
2022-10-01T17:38:23.937Z,24.26
2022-10-01T17:40:56.455Z,24.26
2022-10-01T17:43:24.395Z,24.30
2022-10-01T17:45:57.130Z,24.61
2022-10-01T17:48:25.068Z,24.81
2022-10-01T17:51:06.980Z,24.75
2022-10-01T17:53:41.861Z,24.52
2022-10-01T17:56:18.265Z,24.38
2022-10-01T17:58:46.529Z,24.31
2022-10-01T18:01:16.766Z,24.26
2022-10-01T18:03:44.002Z,24.28
2022-10-01T18:06:14.093Z,24.21
2022-10-01T18:08:54.756Z,24.17
2022-10-01T18:11:24.445Z,24.08
2022-10-01T18:13:52.684Z,24.02
2022-10-01T18:16:20.172Z,24.01
2022-10-01T18:21:34.507Z,23.85
2022-10-01T18:24:04.857Z,23.80
2022-10-01T18:26:32.876Z,23.72
2022-10-01T18:29:00.281Z,23.69
2022-10-01T18:31:34.359Z,23.74
2022-10-01T18:34:03.614Z,23.74
2022-10-01T18:37:05.969Z,23.68
2022-10-01T18:39:45.595Z,23.69
2022-10-01T18:42:27.651Z,23.65
2022-10-01T18:44:57.494Z,23.58
2022-10-01T18:47:39.597Z,23.58
2022-10-01T18:50:29.527Z,23.54
2022-10-01T18:53:02.366Z,23.42
2022-10-01T18:55:45.134Z,23.36
2022-10-01T18:58:49.886Z,23.32
2022-10-01T19:01:41.862Z,23.32
2022-10-01T19:04:14.742Z,23.28
2022-10-01T19:06:54.252Z,23.25
2022-10-01T19:09:37.914Z,23.24
2022-10-01T19:12:23.541Z,23.23
2022-10-01T19:15:03.669Z,23.25
2022-10-01T19:17:36.657Z,23.27
2022-10-01T19:20:11.614Z,23.26
2022-10-01T19:23:20.697Z,23.26
2022-10-01T19:25:58.680Z,23.25
2022-10-01T19:28:49.941Z,23.25
2022-10-01T19:31:33.686Z,23.27
2022-10-01T19:34:11.310Z,23.31
2022-10-01T19:36:43.664Z,23.34
2022-10-01T19:39:20.492Z,23.33
2022-10-01T19:41:50.957Z,23.31
2022-10-01T19:44:24.770Z,23.30
2022-10-01T19:46:56.565Z,23.29
2022-10-01T19:49:32.403Z,23.25
2022-10-01T19:52:18.746Z,23.29
2022-10-01T19:54:51.767Z,23.21
2022-10-01T19:57:27.007Z,23.22
2022-10-01T20:00:04.071Z,23.23
2022-10-01T20:02:37.471Z,23.27
2022-10-01T20:05:06.451Z,23.32
2022-10-01T20:08:07.201Z,23.41
2022-10-01T20:10:39.138Z,23.44
2022-10-01T20:13:51.018Z,23.51
2022-10-01T20:16:41.073Z,23.55
2022-10-01T20:19:38.686Z,23.56
2022-10-01T20:22:23.005Z,23.54
2022-10-01T20:25:12.084Z,23.48
2022-10-01T20:28:02.273Z,23.49
2022-10-01T20:30:33.909Z,23.56
2022-10-01T20:33:32.846Z,23.61
2022-10-01T20:36:12.283Z,23.60
2022-10-01T20:38:49.660Z,23.63
2022-10-01T20:41:20.239Z,23.63
2022-10-01T20:43:51.202Z,23.55
2022-10-01T20:46:21.092Z,23.38
2022-10-01T20:48:52.726Z,23.24
2022-10-01T20:51:33.143Z,23.26
2022-10-01T20:54:09.566Z,23.32
2022-10-01T20:56:47.750Z,23.30
2022-10-01T20:59:19.499Z,23.22
2022-10-01T21:02:19.326Z,23.16
2022-10-01T21:04:54.139Z,23.06
2022-10-01T21:07:30.145Z,23.01
2022-10-01T21:10:00.020Z,23.00
2022-10-01T21:12:44.924Z,22.98
2022-10-01T21:15:14.943Z,23.05
2022-10-01T21:17:47.681Z,23.11
2022-10-01T21:20:23.115Z,23.15
2022-10-01T21:23:34.331Z,23.20
2022-10-01T21:26:10.263Z,23.10
2022-10-01T21:29:09.058Z,23.10
2022-10-01T21:31:49.696Z,23.09
2022-10-01T21:34:33.181Z,23.06
2022-10-01T21:37:13.806Z,23.06
2022-10-01T21:40:13.055Z,23.05
2022-10-01T21:42:48.999Z,22.99
2022-10-01T21:45:42.184Z,22.92
2022-10-01T21:48:27.868Z,22.96
2022-10-01T21:51:01.285Z,22.92
2022-10-01T21:53:46.572Z,22.92
2022-10-01T21:56:41.352Z,22.93
2022-10-01T21:59:30.487Z,22.97
2022-10-01T22:02:05.050Z,22.97
2022-10-01T22:04:48.703Z,22.99
2022-10-01T22:07:25.950Z,22.97
2022-10-01T22:10:12.402Z,23.01
2022-10-01T22:12:42.634Z,23.05
2022-10-01T22:15:46.410Z,23.07
2022-10-01T22:18:40.524Z,23.10
2022-10-01T22:21:31.550Z,23.09
2022-10-01T22:24:04.677Z,23.06
2022-10-01T22:26:37.816Z,23.07
2022-10-01T22:29:14.039Z,23.10
2022-10-01T22:31:43.359Z,23.08
2022-10-01T22:34:15.157Z,23.07
2022-10-01T22:36:54.691Z,23.05
2022-10-01T22:39:24.759Z,23.04
2022-10-01T22:42:08.293Z,23.03
2022-10-01T22:44:35.290Z,23.03
2022-10-01T22:47:14.211Z,23.01
2022-10-01T22:50:05.712Z,22.99
2022-10-01T22:52:58.823Z,22.99
2022-10-01T22:55:39.801Z,23.03
2022-10-01T22:58:17.343Z,23.04
2022-10-01T23:01:07.375Z,23.04
2022-10-01T23:03:49.599Z,23.05
2022-10-01T23:06:25.788Z,23.01
2022-10-01T23:09:08.347Z,22.98
2022-10-01T23:11:57.254Z,23.03
2022-10-01T23:14:45.745Z,23.08
2022-10-01T23:17:41.803Z,23.10
2022-10-01T23:20:19.466Z,23.07
2022-10-01T23:23:17.048Z,23.11
2022-10-01T23:25:58.966Z,23.14
2022-10-01T23:29:06.120Z,23.19
2022-10-01T23:31:35.969Z,23.11
2022-10-01T23:34:24.725Z,23.13
2022-10-01T23:37:09.574Z,23.16
2022-10-01T23:39:45.919Z,23.18
2022-10-01T23:42:30.025Z,23.07
2022-10-01T23:45:34.244Z,23.01
2022-10-01T23:48:29.225Z,22.92
2022-10-01T23:51:02.378Z,22.87
2022-10-01T23:53:48.123Z,22.88
2022-10-01T23:56:39.900Z,22.86
2022-10-01T23:59:26.889Z,22.87
